createdAt,value
2022-10-30T00:04:14.460Z,13.43
2022-10-30T00:09:16.755Z,13.30
2022-10-30T00:14:19.146Z,13.49
2022-10-30T00:19:21.464Z,13.28
2022-10-30T00:24:24.388Z,13.48
2022-10-30T00:29:26.707Z,13.19
2022-10-30T00:34:29.097Z,13.42
2022-10-30T00:39:31.545Z,13.35
2022-10-30T00:44:46.404Z,13.52
2022-10-30T00:50:16.174Z,13.55
2022-10-30T00:55:24.382Z,13.89
2022-10-30T01:00:28.244Z,14.01
2022-10-30T01:05:31.589Z,13.97
2022-10-30T01:10:34.065Z,13.91
2022-10-30T01:15:39.162Z,13.92
2022-10-30T01:21:08.292Z,13.73
2022-10-30T01:26:23.359Z,13.55
2022-10-30T01:31:56.492Z,13.68
2022-10-30T01:37:08.584Z,13.68
2022-10-30T01:42:42.906Z,13.65
2022-10-30T01:48:12.802Z,13.66
2022-10-30T01:53:30.620Z,13.78
2022-10-30T01:58:44.292Z,13.78
2022-10-30T02:03:47.261Z,13.72
2022-10-30T02:08:49.629Z,13.69
2022-10-30T02:13:53.686Z,13.76
2022-10-30T02:18:55.935Z,13.67
2022-10-30T02:23:58.202Z,13.70
2022-10-30T02:29:00.852Z,13.72
2022-10-30T02:34:03.511Z,13.63
2022-10-30T02:39:07.081Z,13.51
2022-10-30T02:44:11.122Z,13.70
2022-10-30T02:49:13.459Z,13.66
2022-10-30T02:54:15.817Z,13.52
2022-10-30T02:59:18.248Z,13.48
2022-10-30T03:04:20.702Z,13.60
2022-10-30T03:09:23.628Z,13.45
2022-10-30T03:14:26.120Z,13.63
2022-10-30T03:19:28.457Z,13.40
2022-10-30T03:24:30.806Z,13.41
2022-10-30T03:29:33.173Z,13.54
2022-10-30T03:34:38.153Z,13.38
2022-10-30T03:39:42.764Z,13.48
2022-10-30T03:44:45.157Z,13.69
2022-10-30T03:49:47.457Z,13.48
2022-10-30T03:54:54.417Z,13.52
2022-10-30T03:59:56.991Z,13.21
2022-10-30T04:05:17.610Z,13.01
2022-10-30T04:10:23.710Z,13.28
2022-10-30T04:15:26.993Z,13.29
2022-10-30T04:20:29.434Z,13.29
2022-10-30T04:25:34.173Z,13.21
2022-10-30T04:30:38.697Z,13.02
2022-10-30T04:35:43.085Z,12.80
2022-10-30T04:40:52.110Z,12.70
2022-10-30T04:45:54.548Z,12.71
2022-10-30T04:50:59.496Z,12.71
2022-10-30T04:56:02.356Z,12.62
2022-10-30T05:01:06.900Z,12.71
2022-10-30T05:06:23.100Z,12.93
2022-10-30T05:11:25.899Z,12.74
2022-10-30T05:16:28.298Z,13.08
2022-10-30T05:21:33.008Z,13.14
2022-10-30T05:26:35.293Z,13.09
2022-10-30T05:31:37.696Z,13.19
2022-10-30T05:36:51.965Z,13.01
2022-10-30T05:41:55.957Z,13.18
2022-10-30T05:47:01.473Z,13.30
2022-10-30T05:52:07.286Z,13.49
2022-10-30T05:57:09.611Z,13.52
2022-10-30T06:02:14.488Z,13.59
2022-10-30T06:07:17.448Z,13.60
2022-10-30T06:12:19.928Z,13.53
2022-10-30T06:17:48.757Z,13.65
2022-10-30T06:23:01.565Z,13.60
2022-10-30T06:28:14.934Z,13.56
2022-10-30T06:33:17.981Z,13.63
2022-10-30T06:38:24.851Z,13.69
2022-10-30T06:43:28.983Z,13.73
2022-10-30T06:48:39.206Z,13.81
2022-10-30T06:53:41.555Z,14.05
2022-10-30T06:59:02.371Z,14.13
2022-10-30T07:04:23.329Z,14.14
2022-10-30T07:09:25.974Z,14.29
2022-10-30T07:14:28.615Z,14.52
2022-10-30T07:19:53.987Z,14.58
2022-10-30T07:24:56.649Z,14.51
2022-10-30T07:30:22.711Z,14.74
2022-10-30T07:35:48.229Z,14.81
2022-10-30T07:41:01.000Z,14.94
2022-10-30T07:46:21.555Z,14.69
2022-10-30T07:51:42.881Z,14.60
2022-10-30T07:56:46.382Z,14.67
2022-10-30T08:01:51.992Z,14.70
2022-10-30T08:07:03.477Z,15.01
2022-10-30T08:12:06.388Z,15.11
2022-10-30T08:17:10.764Z,15.07
2022-10-30T08:22:14.984Z,15.16
2022-10-30T08:27:22.215Z,15.03
2022-10-30T08:32:24.718Z,15.18
2022-10-30T08:37:46.973Z,15.24
2022-10-30T08:42:56.902Z,15.67
2022-10-30T08:48:04.053Z,15.33
2022-10-30T08:53:12.756Z,15.27
2022-10-30T08:58:15.339Z,15.38
2022-10-30T09:03:17.797Z,15.44
2022-10-30T09:08:38.730Z,15.75
2022-10-30T09:13:46.165Z,15.82
2022-10-30T09:18:48.636Z,15.96
2022-10-30T09:23:51.322Z,16.00
2022-10-30T09:29:26.179Z,15.93
2022-10-30T09:34:52.997Z,15.58
2022-10-30T09:40:04.566Z,16.10
2022-10-30T09:45:29.829Z,15.93
2022-10-30T09:50:56.100Z,15.82
2022-10-30T09:56:09.334Z,15.90
2022-10-30T10:01:23.585Z,16.14
2022-10-30T10:06:38.445Z,16.18
2022-10-30T10:12:03.466Z,16.30
2022-10-30T10:17:06.745Z,16.14
2022-10-30T10:22:26.874Z,15.90
2022-10-30T10:28:00.173Z,16.16
2022-10-30T10:33:10.273Z,16.14
2022-10-30T10:38:12.512Z,16.15
2022-10-30T10:43:19.191Z,16.14
2022-10-30T10:48:42.859Z,16.41
2022-10-30T10:54:09.575Z,16.55
2022-10-30T10:59:19.090Z,16.58
2022-10-30T11:04:37.911Z,16.57
2022-10-30T11:09:40.695Z,16.74
2022-10-30T11:14:43.036Z,16.54
2022-10-30T11:19:47.816Z,16.65
2022-10-30T11:24:53.299Z,16.86
2022-10-30T11:29:59.748Z,16.79
2022-10-30T11:35:09.223Z,16.80
2022-10-30T11:40:11.644Z,16.91
2022-10-30T11:45:26.231Z,16.92
2022-10-30T11:50:32.593Z,16.79
2022-10-30T11:55:42.591Z,16.89
2022-10-30T12:00:45.439Z,16.85
2022-10-30T12:05:50.274Z,17.16
2022-10-30T12:11:03.887Z,17.28
2022-10-30T12:16:15.395Z,17.49
2022-10-30T12:21:19.819Z,17.39
2022-10-30T12:26:23.431Z,17.67
2022-10-30T12:31:31.877Z,17.51
2022-10-30T12:36:37.221Z,17.62
2022-10-30T12:42:01.684Z,17.71
2022-10-30T12:47:04.112Z,17.70
2022-10-30T12:52:39.052Z,17.64
2022-10-30T12:57:45.415Z,17.37
2022-10-30T13:03:12.361Z,17.53
2022-10-30T13:08:14.639Z,17.34
2022-10-30T13:13:24.001Z,17.33
2022-10-30T13:18:27.188Z,17.40
2022-10-30T13:23:52.361Z,17.33
2022-10-30T13:29:02.323Z,17.29
2022-10-30T13:34:25.459Z,17.34
2022-10-30T13:39:55.475Z,17.41
2022-10-30T13:45:27.190Z,17.41
2022-10-30T13:50:32.205Z,17.41
2022-10-30T13:55:36.436Z,17.47
2022-10-30T14:01:00.220Z,17.52
2022-10-30T14:06:16.594Z,17.41
2022-10-30T14:11:19.216Z,17.34
2022-10-30T14:16:35.085Z,17.51
2022-10-30T14:21:55.807Z,17.65
2022-10-30T14:27:03.960Z,17.65
2022-10-30T14:32:15.338Z,17.59
2022-10-30T14:37:23.630Z,17.46
2022-10-30T14:42:40.181Z,17.51
2022-10-30T14:47:54.403Z,17.29
2022-10-30T14:52:59.761Z,17.13
2022-10-30T14:58:02.331Z,17.05
2022-10-30T15:03:14.913Z,16.89
2022-10-30T15:08:54.788Z,16.60
2022-10-30T15:14:00.168Z,16.16
2022-10-30T15:19:06.977Z,15.98
2022-10-30T15:24:16.191Z,15.99
2022-10-30T15:29:25.022Z,15.82
2022-10-30T15:34:31.856Z,15.77
2022-10-30T15:39:34.235Z,15.58
2022-10-30T15:44:38.730Z,15.50
2022-10-30T15:49:43.320Z,15.24
2022-10-30T15:54:46.376Z,14.98
2022-10-30T15:59:55.569Z,15.10
2022-10-30T16:04:57.924Z,15.10
2022-10-30T16:10:02.030Z,14.93
2022-10-30T16:15:08.290Z,14.65
2022-10-30T16:20:11.409Z,14.77
2022-10-30T16:25:16.744Z,14.77
2022-10-30T16:30:19.233Z,14.69
2022-10-30T16:35:24.510Z,14.60
2022-10-30T16:40:28.936Z,14.54
2022-10-30T16:45:34.348Z,14.52
2022-10-30T16:50:38.699Z,14.42
2022-10-30T16:55:41.031Z,14.35
2022-10-30T17:00:50.552Z,14.28
2022-10-30T17:06:07.597Z,14.11
2022-10-30T17:11:21.445Z,14.01
2022-10-30T17:16:28.209Z,13.88
2022-10-30T17:21:39.058Z,13.76
2022-10-30T17:26:41.377Z,13.60
2022-10-30T17:31:44.179Z,13.59
2022-10-30T17:36:47.926Z,13.55
2022-10-30T17:41:50.343Z,13.56
2022-10-30T17:46:52.828Z,13.39
2022-10-30T17:51:55.347Z,13.34
2022-10-30T17:56:58.779Z,13.19
2022-10-30T18:02:01.475Z,13.08
2022-10-30T18:07:03.913Z,13.02
2022-10-30T18:12:07.870Z,13.11
2022-10-30T18:17:11.103Z,13.15
2022-10-30T18:22:14.675Z,13.21
2022-10-30T18:27:17.019Z,13.17
2022-10-30T18:32:19.336Z,13.21
2022-10-30T18:37:21.702Z,13.08
2022-10-30T18:42:24.243Z,13.02
2022-10-30T18:47:26.546Z,12.83
2022-10-30T18:52:28.841Z,12.69
2022-10-30T18:57:31.150Z,12.71
2022-10-30T19:02:33.651Z,12.54
2022-10-30T19:07:36.045Z,12.65
2022-10-30T19:12:38.757Z,12.60
2022-10-30T19:17:44.929Z,12.67
2022-10-30T19:22:47.269Z,12.70
2022-10-30T19:27:50.237Z,12.54
2022-10-30T19:32:52.555Z,12.39
2022-10-30T19:37:55.902Z,12.28
2022-10-30T19:42:59.151Z,12.34
2022-10-30T19:48:04.874Z,12.28
2022-10-30T19:53:08.129Z,12.42
2022-10-30T19:58:15.620Z,12.31
2022-10-30T20:03:18.955Z,12.25
2022-10-30T20:08:23.353Z,12.29
2022-10-30T20:13:26.718Z,12.35
2022-10-30T20:18:31.712Z,12.47
2022-10-30T20:23:34.615Z,12.31
2022-10-30T20:28:38.924Z,12.14
2022-10-30T20:33:41.381Z,12.07
2022-10-30T20:38:43.696Z,12.17
2022-10-30T20:43:46.046Z,12.09
2022-10-30T20:48:48.583Z,12.21
2022-10-30T20:53:50.900Z,11.90
2022-10-30T20:58:53.579Z,11.74
2022-10-30T21:04:00.656Z,11.99
2022-10-30T21:09:04.312Z,12.03
2022-10-30T21:14:06.777Z,11.71
2022-10-30T21:19:09.112Z,12.04
2022-10-30T21:24:11.519Z,12.06
2022-10-30T21:29:13.759Z,11.51
2022-10-30T21:34:24.938Z,11.11
2022-10-30T21:39:27.309Z,11.11
2022-10-30T21:44:29.615Z,10.96
2022-10-30T21:49:32.050Z,10.97
2022-10-30T21:54:34.361Z,10.74
2022-10-30T21:59:36.614Z,10.63
2022-10-30T22:04:38.990Z,10.59
2022-10-30T22:09:41.422Z,10.43
2022-10-30T22:14:43.776Z,10.57
2022-10-30T22:19:46.052Z,10.57
2022-10-30T22:24:48.401Z,10.48
2022-10-30T22:29:50.632Z,10.63
2022-10-30T22:34:52.985Z,10.62
2022-10-30T22:39:55.219Z,10.54
2022-10-30T22:44:57.467Z,10.45
2022-10-30T22:49:59.723Z,10.50
2022-10-30T22:55:02.105Z,10.49
2022-10-30T23:00:06.093Z,10.38
2022-10-30T23:05:08.481Z,10.16
2022-10-30T23:10:10.841Z,10.35
2022-10-30T23:15:13.109Z,10.40
2022-10-30T23:20:15.538Z,10.63
2022-10-30T23:25:17.828Z,10.68
2022-10-30T23:30:20.194Z,11.09
2022-10-30T23:35:22.499Z,11.59
2022-10-30T23:40:24.899Z,11.88
2022-10-30T23:45:27.277Z,12.05
2022-10-30T23:50:29.587Z,12.22
2022-10-30T23:55:32.066Z,12.58
